createdAt,value
2022-07-29T00:00:59.979Z,87.50
2022-07-29T00:03:26.670Z,89.20
2022-07-29T00:05:54.167Z,90.30
2022-07-29T00:08:21.057Z,88.80
2022-07-29T00:10:47.793Z,90.20
2022-07-29T00:13:14.500Z,89.60
2022-07-29T00:15:41.480Z,89.70
2022-07-29T00:18:08.194Z,89.40
2022-07-29T00:20:34.897Z,90.80
2022-07-29T00:23:01.737Z,91.30
2022-07-29T00:25:28.484Z,91.60
2022-07-29T00:27:55.208Z,91.50
2022-07-29T00:30:21.981Z,91.80
2022-07-29T00:32:48.714Z,92.50
2022-07-29T00:35:34.315Z,92.70
2022-07-29T00:38:00.966Z,92.90
2022-07-29T00:40:28.939Z,92.80
2022-07-29T00:42:55.756Z,92.40
2022-07-29T00:45:23.169Z,92.50
2022-07-29T00:47:50.135Z,92.20
2022-07-29T00:50:17.863Z,92.30
2022-07-29T00:52:44.791Z,92.80
2022-07-29T00:55:13.788Z,93.50
2022-07-29T00:57:41.556Z,94.20
2022-07-29T01:00:11.379Z,94.90
2022-07-29T01:02:38.433Z,94.20
2022-07-29T01:05:07.363Z,95.10
2022-07-29T01:07:36.215Z,94.90
2022-07-29T01:10:05.548Z,95.40
2022-07-29T01:12:34.468Z,94.80
2022-07-29T01:15:03.325Z,95.40
2022-07-29T01:17:37.070Z,95.60
2022-07-29T01:20:32.070Z,95.60
2022-07-29T01:23:16.842Z,96.70
2022-07-29T01:25:59.401Z,96.90
2022-07-29T01:28:48.639Z,96.20
2022-07-29T01:31:25.060Z,96.10
2022-07-29T01:33:59.375Z,95.30
2022-07-29T01:36:37.456Z,95.50
2022-07-29T01:39:18.091Z,95.50
2022-07-29T01:42:12.749Z,95.00
2022-07-29T01:44:49.398Z,93.90
2022-07-29T01:47:21.547Z,93.50
2022-07-29T01:49:57.685Z,92.60
2022-07-29T01:52:37.347Z,92.80
2022-07-29T01:55:12.732Z,92.30
2022-07-29T01:57:42.812Z,91.80
2022-07-29T02:00:10.478Z,91.80
2022-07-29T02:02:40.035Z,91.60
2022-07-29T02:05:10.511Z,91.40
2022-07-29T02:07:38.940Z,91.30
2022-07-29T02:10:08.107Z,91.80
2022-07-29T02:12:36.601Z,91.70
2022-07-29T02:15:05.288Z,91.60
2022-07-29T02:17:41.870Z,91.40
2022-07-29T02:20:10.009Z,91.90
2022-07-29T02:22:39.283Z,92.10
2022-07-29T02:25:14.219Z,92.90
2022-07-29T02:27:42.404Z,92.50
2022-07-29T02:30:11.136Z,92.60
2022-07-29T02:32:40.233Z,92.90
2022-07-29T02:35:09.597Z,92.60
2022-07-29T02:37:38.055Z,93.00
2022-07-29T02:40:09.352Z,92.90
2022-07-29T02:42:38.331Z,92.40
2022-07-29T02:45:06.636Z,92.80
2022-07-29T02:47:42.544Z,93.30
2022-07-29T02:50:33.583Z,93.90
2022-07-29T02:53:06.470Z,94.60
2022-07-29T02:55:37.908Z,95.80
2022-07-29T02:58:20.706Z,96.20
2022-07-29T03:00:49.751Z,97.40
2022-07-29T03:03:19.037Z,97.40
2022-07-29T03:05:45.749Z,97.90
2022-07-29T03:08:13.770Z,98.60
2022-07-29T03:10:44.340Z,98.60
2022-07-29T03:13:13.369Z,99.10
2022-07-29T03:15:40.611Z,99.00
2022-07-29T03:18:07.986Z,98.70
2022-07-29T03:20:34.900Z,98.60
2022-07-29T03:23:01.623Z,98.90
2022-07-29T03:25:28.408Z,99.10
2022-07-29T03:27:55.141Z,99.20
2022-07-29T03:30:22.557Z,98.70
2022-07-29T03:32:52.106Z,99.30
2022-07-29T03:35:23.600Z,99.90
2022-07-29T03:37:50.376Z,99.90
2022-07-29T03:40:25.319Z,99.90
2022-07-29T03:42:54.972Z,99.90
2022-07-29T03:45:22.914Z,99.90
2022-07-29T03:48:01.973Z,99.90
2022-07-29T03:50:31.530Z,99.90
2022-07-29T03:52:59.100Z,99.90
2022-07-29T03:55:27.690Z,99.90
2022-07-29T03:57:56.343Z,99.90
2022-07-29T04:00:24.648Z,99.90
2022-07-29T04:02:52.004Z,99.90
2022-07-29T04:05:19.663Z,99.90
2022-07-29T04:07:48.077Z,99.90
2022-07-29T04:10:16.573Z,99.90
2022-07-29T04:12:43.725Z,99.90
2022-07-29T04:15:11.264Z,99.90
2022-07-29T04:17:38.011Z,99.90
2022-07-29T04:20:05.846Z,99.90
2022-07-29T04:22:32.560Z,99.90
2022-07-29T04:25:03.782Z,99.90
2022-07-29T04:27:31.003Z,99.90
2022-07-29T04:29:57.790Z,99.90
2022-07-29T04:32:25.586Z,99.90
2022-07-29T04:34:52.406Z,99.90
2022-07-29T04:37:19.497Z,99.90
2022-07-29T04:39:46.164Z,99.90
2022-07-29T04:42:12.820Z,99.90
2022-07-29T04:44:43.194Z,99.90
2022-07-29T04:47:10.257Z,99.90
2022-07-29T04:49:39.527Z,99.90
2022-07-29T04:52:07.036Z,99.90
2022-07-29T04:54:34.154Z,99.90
2022-07-29T04:57:00.878Z,99.90
2022-07-29T04:59:27.993Z,99.90
2022-07-29T05:01:54.746Z,99.90
2022-07-29T05:04:21.575Z,99.90
2022-07-29T05:06:48.743Z,99.90
2022-07-29T05:09:15.433Z,99.90
2022-07-29T05:11:42.147Z,99.90
2022-07-29T05:14:08.863Z,99.90
2022-07-29T05:16:36.164Z,99.90
2022-07-29T05:19:02.899Z,99.90
2022-07-29T05:21:29.574Z,99.90
2022-07-29T05:23:56.301Z,99.90
2022-07-29T05:26:23.146Z,99.90
2022-07-29T05:28:50.197Z,99.90
2022-07-29T05:31:17.439Z,99.90
2022-07-29T05:33:44.147Z,99.90
2022-07-29T05:36:10.856Z,99.90
2022-07-29T05:38:37.615Z,99.40
2022-07-29T05:41:06.075Z,99.00
2022-07-29T05:43:33.435Z,98.20
2022-07-29T05:46:00.449Z,98.80
2022-07-29T05:48:27.417Z,99.20
2022-07-29T05:50:54.597Z,98.40
2022-07-29T05:53:21.443Z,97.90
2022-07-29T05:55:49.757Z,98.40
2022-07-29T05:58:16.543Z,98.40
2022-07-29T06:00:43.707Z,98.40
2022-07-29T06:03:10.510Z,98.80
2022-07-29T06:05:37.270Z,98.00
2022-07-29T06:08:06.728Z,96.40
2022-07-29T06:10:33.670Z,95.50
2022-07-29T06:13:00.347Z,96.60
2022-07-29T06:15:27.205Z,96.30
2022-07-29T06:17:59.857Z,95.70
2022-07-29T06:20:32.531Z,96.70
2022-07-29T06:23:00.239Z,96.00
2022-07-29T06:25:30.151Z,93.90
2022-07-29T06:27:57.376Z,94.50
2022-07-29T06:30:24.208Z,94.40
2022-07-29T06:32:51.009Z,94.30
2022-07-29T06:35:42.139Z,93.10
2022-07-29T06:38:09.597Z,93.50
2022-07-29T06:41:03.402Z,92.00
2022-07-29T06:43:52.599Z,91.80
2022-07-29T06:46:21.934Z,91.40
2022-07-29T06:48:49.924Z,91.80
2022-07-29T06:51:22.553Z,91.30
2022-07-29T06:54:00.494Z,91.00
2022-07-29T06:56:30.325Z,90.00
2022-07-29T06:58:56.995Z,90.30
2022-07-29T07:01:23.840Z,90.10
2022-07-29T07:03:50.649Z,90.00
2022-07-29T07:06:17.643Z,90.40
2022-07-29T07:08:44.674Z,90.20
2022-07-29T07:11:11.365Z,90.10
2022-07-29T07:13:38.141Z,90.90
2022-07-29T07:16:05.346Z,90.20
2022-07-29T07:18:32.243Z,89.50
2022-07-29T07:20:59.207Z,90.10
2022-07-29T07:23:26.022Z,90.00
2022-07-29T07:25:52.931Z,90.00
2022-07-29T07:28:24.542Z,90.20
2022-07-29T07:30:52.586Z,90.20
2022-07-29T07:33:19.370Z,90.60
2022-07-29T07:35:46.050Z,91.10
2022-07-29T07:38:13.041Z,91.30
2022-07-29T07:40:39.804Z,91.20
2022-07-29T07:43:06.552Z,90.20
2022-07-29T07:45:38.277Z,87.90
2022-07-29T07:48:05.890Z,89.50
2022-07-29T07:50:32.780Z,89.70
2022-07-29T07:52:59.763Z,89.60
2022-07-29T07:55:27.192Z,89.20
2022-07-29T07:57:57.312Z,90.20
2022-07-29T08:00:24.162Z,87.80
2022-07-29T08:02:51.397Z,88.60
2022-07-29T08:05:19.077Z,89.60
2022-07-29T08:07:47.791Z,90.10
2022-07-29T08:10:36.569Z,90.20
2022-07-29T08:13:08.154Z,89.70
2022-07-29T08:15:35.190Z,89.80
2022-07-29T08:18:06.542Z,89.00
2022-07-29T08:20:36.685Z,87.70
2022-07-29T08:23:05.377Z,88.90
2022-07-29T08:25:32.142Z,88.00
2022-07-29T08:28:00.288Z,87.20
2022-07-29T08:30:26.940Z,85.60
2022-07-29T08:32:55.539Z,86.60
2022-07-29T08:35:24.360Z,85.90
2022-07-29T08:37:52.099Z,86.60
2022-07-29T08:40:19.343Z,86.80
2022-07-29T08:42:46.079Z,86.60
2022-07-29T08:45:13.246Z,82.30
2022-07-29T08:47:40.769Z,83.40
2022-07-29T08:50:11.039Z,82.70
2022-07-29T08:52:41.256Z,83.90
2022-07-29T08:55:10.593Z,84.60
2022-07-29T08:57:39.487Z,83.40
2022-07-29T09:00:19.281Z,82.40
2022-07-29T09:02:52.626Z,80.40
2022-07-29T09:05:20.126Z,79.10
2022-07-29T09:07:48.972Z,77.10
2022-07-29T09:10:15.847Z,77.80
2022-07-29T09:12:42.740Z,78.30
2022-07-29T09:15:09.677Z,79.10
2022-07-29T09:17:46.404Z,79.50
2022-07-29T09:20:15.910Z,78.80
2022-07-29T09:22:42.590Z,78.40
2022-07-29T09:25:10.005Z,79.40
2022-07-29T09:27:36.976Z,81.10
2022-07-29T09:30:11.421Z,85.90
2022-07-29T09:32:57.435Z,89.10
2022-07-29T09:35:26.575Z,91.20
2022-07-29T09:37:53.425Z,94.90
2022-07-29T09:40:24.147Z,96.40
2022-07-29T09:42:51.844Z,98.60
2022-07-29T09:45:29.623Z,96.80
2022-07-29T09:47:58.395Z,94.40
2022-07-29T09:50:42.295Z,98.00
2022-07-29T09:53:12.333Z,96.60
2022-07-29T09:55:50.726Z,94.90
2022-07-29T09:58:23.558Z,94.20
2022-07-29T10:00:51.557Z,95.10
2022-07-29T10:03:19.368Z,92.80
2022-07-29T10:06:04.237Z,93.60
2022-07-29T10:08:32.358Z,92.20
2022-07-29T10:11:16.744Z,90.20
2022-07-29T10:13:45.824Z,90.00
2022-07-29T10:16:13.972Z,89.30
2022-07-29T10:18:45.133Z,88.90
2022-07-29T10:21:35.365Z,88.90
2022-07-29T10:24:01.173Z,88.70
2022-07-29T10:26:29.824Z,83.10
2022-07-29T10:28:56.756Z,87.70
2022-07-29T10:31:32.870Z,87.30
2022-07-29T10:34:29.083Z,83.90
2022-07-29T10:37:08.244Z,79.70
2022-07-29T10:39:54.323Z,78.50
2022-07-29T10:42:33.387Z,77.80
2022-07-29T10:45:04.633Z,78.60
2022-07-29T10:47:31.769Z,79.70
2022-07-29T10:50:01.479Z,78.30
2022-07-29T10:52:50.207Z,76.00
2022-07-29T10:55:45.512Z,76.60
2022-07-29T10:58:17.805Z,74.10
2022-07-29T11:00:46.248Z,72.70
2022-07-29T11:03:52.192Z,74.60
2022-07-29T11:06:26.677Z,74.70
2022-07-29T11:09:18.330Z,74.70
2022-07-29T11:11:51.403Z,73.40
2022-07-29T11:14:39.152Z,71.90
2022-07-29T11:17:08.736Z,74.70
2022-07-29T11:19:37.305Z,72.60
2022-07-29T11:22:09.867Z,70.70
2022-07-29T11:24:36.921Z,71.30
2022-07-29T11:27:19.485Z,71.70
2022-07-29T11:29:58.719Z,70.90
2022-07-29T11:32:37.796Z,69.70
2022-07-29T11:35:37.383Z,68.80
2022-07-29T11:38:23.512Z,67.40
2022-07-29T11:41:27.685Z,66.70
2022-07-29T11:43:59.448Z,66.30
2022-07-29T11:46:50.450Z,67.40
2022-07-29T11:49:32.490Z,67.10
2022-07-29T11:52:02.678Z,66.60
2022-07-29T11:57:21.878Z,67.00
2022-07-29T11:59:49.122Z,65.90
2022-07-29T12:05:10.586Z,64.90
2022-07-29T12:07:03.626Z,67.70
2022-07-29T12:07:39.341Z,66.40
2022-07-29T12:10:11.745Z,65.10
2022-07-29T12:12:53.626Z,64.60
2022-07-29T12:15:24.946Z,62.70
2022-07-29T12:18:16.492Z,65.90
2022-07-29T12:20:46.418Z,65.50
2022-07-29T12:23:13.660Z,66.20
2022-07-29T12:25:44.808Z,64.60
2022-07-29T12:28:26.723Z,65.70
2022-07-29T12:30:54.502Z,66.50
2022-07-29T12:33:28.362Z,67.20
2022-07-29T12:36:09.417Z,66.40
2022-07-29T12:38:41.715Z,67.60
2022-07-29T12:41:08.570Z,68.20
2022-07-29T12:43:35.575Z,67.70
2022-07-29T12:46:14.278Z,67.50
2022-07-29T12:48:44.296Z,67.60
2022-07-29T12:51:15.337Z,69.20
2022-07-29T12:53:42.260Z,68.40
2022-07-29T12:56:40.533Z,72.20
2022-07-29T12:59:21.223Z,76.90
2022-07-29T13:01:50.391Z,81.30
2022-07-29T13:04:30.323Z,86.50
2022-07-29T13:07:06.967Z,82.90
2022-07-29T13:09:45.718Z,89.30
2022-07-29T13:12:14.564Z,95.80
2022-07-29T13:14:45.515Z,96.40
2022-07-29T13:17:13.908Z,99.90
2022-07-29T13:19:41.769Z,99.90
2022-07-29T13:22:17.535Z,99.90
2022-07-29T13:24:53.530Z,99.90
2022-07-29T13:27:22.792Z,99.90
2022-07-29T13:29:52.334Z,99.90
2022-07-29T13:32:20.294Z,99.90
2022-07-29T13:34:59.546Z,99.90
2022-07-29T13:37:27.305Z,99.90
2022-07-29T13:39:55.107Z,99.90
2022-07-29T13:42:21.923Z,99.90
2022-07-29T13:44:51.731Z,99.90
2022-07-29T13:47:19.698Z,99.90
2022-07-29T13:49:46.453Z,99.90
2022-07-29T13:52:13.287Z,99.90
2022-07-29T13:54:42.422Z,99.90
2022-07-29T13:57:11.683Z,99.90
2022-07-29T13:59:39.230Z,99.90
2022-07-29T14:02:06.504Z,99.90
2022-07-29T14:04:34.485Z,99.90
2022-07-29T14:07:03.475Z,99.90
2022-07-29T14:09:40.944Z,99.90
2022-07-29T14:12:09.047Z,99.90
2022-07-29T14:14:37.451Z,99.90
2022-07-29T14:17:04.659Z,99.90
2022-07-29T14:19:33.037Z,99.90
2022-07-29T14:22:00.200Z,99.90
2022-07-29T14:24:27.456Z,99.90
2022-07-29T14:26:54.200Z,99.90
2022-07-29T14:29:21.114Z,99.90
2022-07-29T14:31:47.824Z,99.90
2022-07-29T14:34:16.358Z,99.90
2022-07-29T14:36:43.531Z,99.90
2022-07-29T14:39:10.219Z,99.90
2022-07-29T14:41:36.858Z,99.90
2022-07-29T14:44:03.842Z,99.90
2022-07-29T14:46:30.645Z,99.90
2022-07-29T14:48:57.417Z,99.90
2022-07-29T14:51:24.146Z,99.90
2022-07-29T14:53:59.158Z,99.90
2022-07-29T14:56:46.599Z,99.90
2022-07-29T14:59:12.613Z,99.90
2022-07-29T15:01:39.370Z,99.90
2022-07-29T15:04:06.160Z,99.90
2022-07-29T15:06:32.809Z,99.90
2022-07-29T15:08:59.477Z,99.90
2022-07-29T15:11:26.508Z,99.90
2022-07-29T15:13:53.183Z,99.90
2022-07-29T15:16:19.918Z,99.90
2022-07-29T15:18:46.631Z,99.90
2022-07-29T15:21:13.378Z,99.90
2022-07-29T15:23:40.109Z,99.90
2022-07-29T15:26:06.784Z,99.90
2022-07-29T15:28:33.575Z,99.90
2022-07-29T15:31:00.301Z,99.90
2022-07-29T15:33:27.081Z,99.90
2022-07-29T15:35:53.751Z,99.90
2022-07-29T15:38:20.490Z,99.90
2022-07-29T15:40:55.821Z,99.90
2022-07-29T15:43:23.153Z,99.90
2022-07-29T15:46:08.932Z,99.90
2022-07-29T15:48:39.257Z,99.90
2022-07-29T15:51:06.158Z,99.90
2022-07-29T15:53:33.093Z,99.90
2022-07-29T15:56:02.158Z,99.90
2022-07-29T15:58:29.015Z,99.90
2022-07-29T16:00:55.878Z,99.90
2022-07-29T16:03:22.953Z,99.90
2022-07-29T16:05:49.758Z,99.90
2022-07-29T16:08:16.455Z,99.90
2022-07-29T16:10:43.227Z,99.90
2022-07-29T16:13:09.955Z,99.90
2022-07-29T16:15:36.679Z,99.90
2022-07-29T16:18:03.531Z,99.90
2022-07-29T16:20:30.295Z,99.90
2022-07-29T16:22:57.120Z,99.90
2022-07-29T16:25:38.316Z,99.90
2022-07-29T16:28:10.664Z,99.90
2022-07-29T16:30:37.349Z,99.90
2022-07-29T16:33:08.215Z,99.90
2022-07-29T16:35:39.647Z,99.90
2022-07-29T16:38:06.798Z,99.90
2022-07-29T16:40:33.501Z,99.90
2022-07-29T16:43:00.261Z,99.90
2022-07-29T16:45:28.765Z,99.90
2022-07-29T16:48:09.309Z,99.90
2022-07-29T16:50:38.053Z,99.90
2022-07-29T16:53:04.735Z,99.90
2022-07-29T16:55:31.441Z,99.90
2022-07-29T16:57:58.224Z,99.90
2022-07-29T17:00:24.915Z,99.90
2022-07-29T17:02:51.673Z,99.90
2022-07-29T17:05:19.398Z,99.90
2022-07-29T17:07:46.495Z,99.90
2022-07-29T17:10:13.362Z,99.90
2022-07-29T17:12:40.930Z,99.90
2022-07-29T17:15:10.739Z,99.90
2022-07-29T17:17:38.776Z,99.90
2022-07-29T17:20:21.612Z,99.90
2022-07-29T17:22:48.498Z,99.90
2022-07-29T17:25:20.441Z,99.90
2022-07-29T17:27:49.572Z,99.90
2022-07-29T17:30:16.807Z,99.90
2022-07-29T17:32:43.470Z,99.90
2022-07-29T17:35:29.475Z,99.90
2022-07-29T17:37:56.369Z,99.90
2022-07-29T17:40:23.266Z,99.90
2022-07-29T17:42:50.163Z,99.90
2022-07-29T17:45:17.000Z,99.90
2022-07-29T17:47:45.017Z,99.90
2022-07-29T17:50:11.698Z,99.90
2022-07-29T17:52:39.116Z,99.90
2022-07-29T17:55:07.306Z,99.90
2022-07-29T17:57:34.239Z,99.90
2022-07-29T18:00:01.025Z,99.90
2022-07-29T18:02:28.337Z,99.90
2022-07-29T18:04:55.221Z,99.90
2022-07-29T18:07:21.962Z,99.90
2022-07-29T18:09:48.612Z,99.90
2022-07-29T18:12:15.312Z,99.90
2022-07-29T18:14:42.119Z,99.90
2022-07-29T18:17:08.846Z,99.90
2022-07-29T18:19:35.629Z,99.90
2022-07-29T18:22:05.146Z,99.90
2022-07-29T18:24:32.447Z,99.90
2022-07-29T18:26:59.458Z,99.90
2022-07-29T18:29:28.875Z,99.90
2022-07-29T18:31:55.936Z,99.90
2022-07-29T18:34:22.586Z,99.90
2022-07-29T18:36:49.319Z,99.90
2022-07-29T18:39:20.308Z,99.90
2022-07-29T18:41:50.356Z,99.90
2022-07-29T18:44:18.941Z,99.90
2022-07-29T18:46:47.968Z,99.90
2022-07-29T18:49:15.004Z,99.90
2022-07-29T18:51:41.876Z,99.90
2022-07-29T18:54:10.463Z,99.90
2022-07-29T18:56:37.394Z,99.90
2022-07-29T18:59:04.358Z,99.90
2022-07-29T19:01:32.228Z,99.90
2022-07-29T19:03:59.250Z,99.90
2022-07-29T19:06:26.143Z,99.90
2022-07-29T19:08:53.397Z,99.90
2022-07-29T19:11:20.109Z,99.90
2022-07-29T19:13:46.763Z,99.90
2022-07-29T19:16:14.110Z,99.90
2022-07-29T19:18:41.415Z,99.90
2022-07-29T19:21:08.201Z,99.90
2022-07-29T19:24:01.411Z,99.90
2022-07-29T19:26:21.628Z,99.90
2022-07-29T19:28:48.815Z,99.90
2022-07-29T19:31:16.099Z,99.90
2022-07-29T19:33:42.909Z,99.90
2022-07-29T19:36:09.690Z,99.90
2022-07-29T19:38:38.209Z,99.90
2022-07-29T19:41:06.302Z,99.90
2022-07-29T19:43:51.327Z,99.90
2022-07-29T19:46:20.391Z,99.90
2022-07-29T19:48:47.328Z,99.90
2022-07-29T19:51:14.187Z,99.90
2022-07-29T19:53:40.887Z,99.90
2022-07-29T19:56:09.005Z,99.90
2022-07-29T19:58:36.141Z,99.90
2022-07-29T20:01:10.679Z,99.90
2022-07-29T20:03:39.728Z,99.90
2022-07-29T20:06:07.519Z,99.90
2022-07-29T20:08:34.418Z,99.90
2022-07-29T20:11:01.202Z,99.90
2022-07-29T20:13:27.933Z,99.90
2022-07-29T20:15:54.667Z,99.90
2022-07-29T20:18:21.373Z,99.90
2022-07-29T20:20:49.568Z,99.90
2022-07-29T20:23:18.238Z,99.90
2022-07-29T20:25:45.349Z,99.90
2022-07-29T20:28:12.027Z,99.90
2022-07-29T20:30:38.897Z,99.90
2022-07-29T20:33:06.699Z,99.90
2022-07-29T20:35:33.949Z,99.90
2022-07-29T20:38:00.991Z,99.90
2022-07-29T20:40:29.216Z,99.90
2022-07-29T20:42:56.275Z,99.90
2022-07-29T20:45:24.168Z,99.90
2022-07-29T20:47:51.981Z,99.90
2022-07-29T20:50:24.230Z,99.90
2022-07-29T20:52:51.988Z,99.90
2022-07-29T20:55:18.763Z,99.90
2022-07-29T20:57:45.476Z,99.90
2022-07-29T21:00:12.627Z,99.90
2022-07-29T21:02:39.343Z,99.90
2022-07-29T21:05:06.576Z,99.90
2022-07-29T21:07:33.281Z,99.90
2022-07-29T21:09:59.950Z,99.90
2022-07-29T21:12:26.742Z,99.90
2022-07-29T21:14:53.443Z,99.90
2022-07-29T21:17:22.598Z,99.90
2022-07-29T21:19:52.509Z,99.90
2022-07-29T21:22:21.793Z,99.90
2022-07-29T21:24:49.157Z,99.90
2022-07-29T21:27:34.698Z,99.90
2022-07-29T21:30:01.628Z,99.90
2022-07-29T21:32:30.040Z,99.90
2022-07-29T21:34:57.747Z,99.90
2022-07-29T21:37:24.609Z,99.90
2022-07-29T21:39:51.385Z,99.90
2022-07-29T21:42:18.255Z,99.90
2022-07-29T21:44:45.201Z,99.90
2022-07-29T21:47:12.348Z,99.90
2022-07-29T21:49:39.378Z,99.90
2022-07-29T21:52:08.112Z,99.90
2022-07-29T21:54:35.830Z,99.90
2022-07-29T21:57:03.005Z,99.90
2022-07-29T21:59:30.065Z,99.90
2022-07-29T22:02:00.755Z,99.90
2022-07-29T22:04:29.182Z,99.90
2022-07-29T22:06:56.687Z,99.90
2022-07-29T22:09:24.211Z,99.90
2022-07-29T22:11:51.085Z,99.90
2022-07-29T22:14:18.483Z,99.90
2022-07-29T22:16:46.707Z,99.90
2022-07-29T22:19:14.859Z,99.90
2022-07-29T22:21:42.036Z,99.90
2022-07-29T22:24:10.311Z,99.90
2022-07-29T22:26:38.158Z,99.90
2022-07-29T22:29:05.065Z,99.90
2022-07-29T22:31:31.804Z,99.90
2022-07-29T22:33:58.525Z,99.90
2022-07-29T22:36:26.149Z,99.90
2022-07-29T22:38:52.834Z,99.90
2022-07-29T22:41:19.524Z,99.90
2022-07-29T22:43:46.175Z,99.90
2022-07-29T22:46:12.898Z,99.90
2022-07-29T22:48:39.662Z,99.90
2022-07-29T22:51:06.926Z,99.90
2022-07-29T22:53:33.607Z,99.90
2022-07-29T22:56:00.365Z,99.90
2022-07-29T22:58:27.143Z,99.90
2022-07-29T23:00:54.131Z,99.90
2022-07-29T23:03:22.723Z,99.90
2022-07-29T23:05:51.529Z,99.90
2022-07-29T23:08:21.298Z,99.90
2022-07-29T23:10:48.043Z,99.90
2022-07-29T23:13:14.748Z,99.90
2022-07-29T23:15:41.984Z,99.90
2022-07-29T23:18:09.222Z,99.90
2022-07-29T23:20:36.116Z,99.90
2022-07-29T23:23:02.964Z,99.90
2022-07-29T23:25:29.780Z,99.90
2022-07-29T23:27:56.847Z,99.90
2022-07-29T23:30:23.708Z,99.90
2022-07-29T23:32:50.484Z,99.90
2022-07-29T23:35:17.146Z,99.90
2022-07-29T23:37:43.925Z,99.90
2022-07-29T23:40:14.439Z,99.90
2022-07-29T23:42:42.281Z,99.90
2022-07-29T23:45:09.923Z,99.90
2022-07-29T23:47:36.634Z,99.90
2022-07-29T23:50:04.489Z,99.90
2022-07-29T23:52:31.309Z,99.90
2022-07-29T23:55:37.297Z,99.90
2022-07-29T23:57:44.723Z,99.90
